Labadieville, Louisiana
Current Conditions -  °F | °C
As of 8:55 AM on Saturday 01 Nov 2014 (Local Time) from KL38 Reporting Station
Clear Clear  
Wind Chill: 40°   Ceiling: Unl
Heat Index: 44°   Visibility: 10mi
Dew Point: 26°   Wind: 8mph
Humidity: 48%   Direction: 30°NNE
Pressure: 30.38"   Gusts: NA
Location:  29.84°N, 90.96°W
Report Text: KL38 011355Z AUTO 03007KT 350V060 10SM CLR 07/M04 A3038 RMK AO2 T00691036
Loading
Personal Weather Stations






























Interactive Weather Map
Tropical Storm Tracking
New forecast layout! Learn more

10-Day Weather Forecast

Advertisements
Track Severe Weather on mobile